sensor_id;sensor_type;location;lat;lon;timestamp;P1;durP1;ratioP1;P2;durP2;ratioP2
15451;SDS011;7827;53.594;9.938;2023-05-07T00:00:20;15.80;;;13.50;;
15451;SDS011;7827;53.594;9.938;2023-05-07T00:02:49;16.13;;;14.13;;
15451;SDS011;7827;53.594;9.938;2023-05-07T00:05:17;14.88;;;13.27;;
15451;SDS011;7827;53.594;9.938;2023-05-07T00:07:48;15.65;;;13.45;;
15451;SDS011;7827;53.594;9.938;2023-05-07T00:10:16;17.55;;;13.63;;
15451;SDS011;7827;53.594;9.938;2023-05-07T00:12:44;16.20;;;14.23;;
15451;SDS011;7827;53.594;9.938;2023-05-07T00:15:13;15.60;;;13.57;;
15451;SDS011;7827;53.594;9.938;2023-05-07T00:17:41;16.10;;;13.27;;
15451;SDS011;7827;53.594;9.938;2023-05-07T00:20:10;16.27;;;13.50;;
15451;SDS011;7827;53.594;9.938;2023-05-07T00:22:39;15.47;;;13.10;;
15451;SDS011;7827;53.594;9.938;2023-05-07T00:25:09;16.50;;;13.77;;
15451;SDS011;7827;53.594;9.938;2023-05-07T00:27:37;16.30;;;14.07;;
15451;SDS011;7827;53.594;9.938;2023-05-07T00:30:06;18.15;;;15.30;;
15451;SDS011;7827;53.594;9.938;2023-05-07T00:32:36;15.93;;;14.13;;
15451;SDS011;7827;53.594;9.938;2023-05-07T00:35:05;18.30;;;14.30;;
15451;SDS011;7827;53.594;9.938;2023-05-07T00:37:35;17.23;;;13.77;;
15451;SDS011;7827;53.594;9.938;2023-05-07T00:40:04;19.43;;;13.97;;
15451;SDS011;7827;53.594;9.938;2023-05-07T00:42:37;17.02;;;14.82;;
15451;SDS011;7827;53.594;9.938;2023-05-07T00:45:06;18.10;;;14.83;;
15451;SDS011;7827;53.594;9.938;2023-05-07T00:47:35;16.60;;;14.65;;
15451;SDS011;7827;53.594;9.938;2023-05-07T00:50:04;16.70;;;14.88;;
15451;SDS011;7827;53.594;9.938;2023-05-07T00:52:35;19.13;;;14.83;;
15451;SDS011;7827;53.594;9.938;2023-05-07T00:55:05;16.50;;;14.47;;
15451;SDS011;7827;53.594;9.938;2023-05-07T00:57:37;16.60;;;14.30;;
15451;SDS011;7827;53.594;9.938;2023-05-07T01:00:08;18.40;;;14.27;;
15451;SDS011;7827;53.594;9.938;2023-05-07T01:02:39;17.58;;;14.60;;
15451;SDS011;7827;53.594;9.938;2023-05-07T01:05:09;17.35;;;14.13;;
15451;SDS011;7827;53.594;9.938;2023-05-07T01:07:41;16.20;;;13.70;;
15451;SDS011;7827;53.594;9.938;2023-05-07T01:10:10;15.73;;;13.33;;
15451;SDS011;7827;53.594;9.938;2023-05-07T01:12:41;18.50;;;14.57;;
15451;SDS011;7827;53.594;9.938;2023-05-07T01:15:12;15.90;;;13.82;;
15451;SDS011;7827;53.594;9.938;2023-05-07T01:17:41;15.93;;;14.00;;
15451;SDS011;7827;53.594;9.938;2023-05-07T01:20:19;16.03;;;13.87;;
15451;SDS011;7827;53.594;9.938;2023-05-07T01:22:52;17.87;;;13.83;;
15451;SDS011;7827;53.594;9.938;2023-05-07T01:25:22;15.43;;;12.90;;
15451;SDS011;7827;53.594;9.938;2023-05-07T01:27:54;16.13;;;13.63;;
15451;SDS011;7827;53.594;9.938;2023-05-07T01:30:27;15.10;;;12.35;;
15451;SDS011;7827;53.594;9.938;2023-05-07T01:33:00;14.13;;;12.00;;
15451;SDS011;7827;53.594;9.938;2023-05-07T01:35:36;13.30;;;11.90;;
15451;SDS011;7827;53.594;9.938;2023-05-07T01:38:10;15.13;;;11.80;;
15451;SDS011;7827;53.594;9.938;2023-05-07T01:40:40;12.37;;;11.03;;
15451;SDS011;7827;53.594;9.938;2023-05-07T01:43:09;13.37;;;11.80;;
15451;SDS011;7827;53.594;9.938;2023-05-07T01:45:38;14.67;;;11.83;;
15451;SDS011;7827;53.594;9.938;2023-05-07T01:48:09;16.40;;;12.23;;
15451;SDS011;7827;53.594;9.938;2023-05-07T01:50:39;14.13;;;12.03;;
15451;SDS011;7827;53.594;9.938;2023-05-07T01:53:08;15.50;;;11.57;;
15451;SDS011;7827;53.594;9.938;2023-05-07T01:55:38;13.02;;;11.65;;
15451;SDS011;7827;53.594;9.938;2023-05-07T01:58:07;12.88;;;11.15;;
15451;SDS011;7827;53.594;9.938;2023-05-07T02:00:35;12.93;;;11.57;;
15451;SDS011;7827;53.594;9.938;2023-05-07T02:03:05;12.93;;;11.40;;
15451;SDS011;7827;53.594;9.938;2023-05-07T02:05:41;14.07;;;12.18;;
15451;SDS011;7827;53.594;9.938;2023-05-07T02:08:17;12.40;;;11.07;;
15451;SDS011;7827;53.594;9.938;2023-05-07T02:10:46;12.02;;;10.73;;
15451;SDS011;7827;53.594;9.938;2023-05-07T02:13:14;14.43;;;10.75;;
15451;SDS011;7827;53.594;9.938;2023-05-07T02:15:43;12.55;;;11.23;;
15451;SDS011;7827;53.594;9.938;2023-05-07T02:18:15;12.70;;;10.80;;
15451;SDS011;7827;53.594;9.938;2023-05-07T02:20:44;13.07;;;10.90;;
15451;SDS011;7827;53.594;9.938;2023-05-07T02:23:14;12.23;;;10.90;;
15451;SDS011;7827;53.594;9.938;2023-05-07T02:25:44;16.20;;;11.30;;
15451;SDS011;7827;53.594;9.938;2023-05-07T02:28:12;13.40;;;10.87;;
15451;SDS011;7827;53.594;9.938;2023-05-07T02:30:54;12.97;;;11.30;;
15451;SDS011;7827;53.594;9.938;2023-05-07T02:33:24;13.48;;;11.05;;
15451;SDS011;7827;53.594;9.938;2023-05-07T02:35:53;12.25;;;10.93;;
15451;SDS011;7827;53.594;9.938;2023-05-07T02:38:21;15.70;;;11.17;;
15451;SDS011;7827;53.594;9.938;2023-05-07T02:40:51;13.40;;;11.07;;
15451;SDS011;7827;53.594;9.938;2023-05-07T02:43:20;12.77;;;10.35;;
15451;SDS011;7827;53.594;9.938;2023-05-07T02:45:48;12.75;;;10.27;;
15451;SDS011;7827;53.594;9.938;2023-05-07T02:48:17;13.52;;;10.52;;
15451;SDS011;7827;53.594;9.938;2023-05-07T02:50:45;11.68;;;10.43;;
15451;SDS011;7827;53.594;9.938;2023-05-07T02:53:14;11.40;;;10.20;;
15451;SDS011;7827;53.594;9.938;2023-05-07T02:55:42;14.03;;;11.10;;
15451;SDS011;7827;53.594;9.938;2023-05-07T02:58:12;14.03;;;10.83;;
15451;SDS011;7827;53.594;9.938;2023-05-07T03:00:41;15.23;;;11.43;;
15451;SDS011;7827;53.594;9.938;2023-05-07T03:03:30;11.68;;;10.10;;
15451;SDS011;7827;53.594;9.938;2023-05-07T03:05:59;11.70;;;10.50;;
15451;SDS011;7827;53.594;9.938;2023-05-07T03:08:28;14.00;;;10.13;;
15451;SDS011;7827;53.594;9.938;2023-05-07T03:10:56;14.33;;;10.40;;
15451;SDS011;7827;53.594;9.938;2023-05-07T03:13:26;12.10;;;9.87;;
15451;SDS011;7827;53.594;9.938;2023-05-07T03:15:55;13.40;;;10.90;;
15451;SDS011;7827;53.594;9.938;2023-05-07T03:18:23;12.50;;;10.70;;
15451;SDS011;7827;53.594;9.938;2023-05-07T03:20:52;13.77;;;10.80;;
15451;SDS011;7827;53.594;9.938;2023-05-07T03:23:20;14.03;;;11.90;;
15451;SDS011;7827;53.594;9.938;2023-05-07T03:25:50;14.70;;;11.67;;
15451;SDS011;7827;53.594;9.938;2023-05-07T03:28:18;15.43;;;12.27;;
15451;SDS011;7827;53.594;9.938;2023-05-07T03:30:54;15.73;;;12.90;;
15451;SDS011;7827;53.594;9.938;2023-05-07T03:33:22;15.83;;;12.13;;
15451;SDS011;7827;53.594;9.938;2023-05-07T03:35:51;17.60;;;12.17;;
15451;SDS011;7827;53.594;9.938;2023-05-07T03:38:22;17.92;;;12.23;;
15451;SDS011;7827;53.594;9.938;2023-05-07T03:40:51;14.73;;;12.27;;
15451;SDS011;7827;53.594;9.938;2023-05-07T03:43:19;15.05;;;12.77;;
15451;SDS011;7827;53.594;9.938;2023-05-07T03:45:56;16.23;;;12.17;;
15451;SDS011;7827;53.594;9.938;2023-05-07T03:48:27;15.00;;;12.50;;
15451;SDS011;7827;53.594;9.938;2023-05-07T03:50:57;13.27;;;11.52;;
15451;SDS011;7827;53.594;9.938;2023-05-07T03:53:30;13.47;;;11.80;;
15451;SDS011;7827;53.594;9.938;2023-05-07T03:55:59;14.53;;;12.33;;
15451;SDS011;7827;53.594;9.938;2023-05-07T03:58:31;13.77;;;11.47;;
15451;SDS011;7827;53.594;9.938;2023-05-07T04:01:06;13.67;;;12.10;;
15451;SDS011;7827;53.594;9.938;2023-05-07T04:03:34;14.05;;;12.02;;
15451;SDS011;7827;53.594;9.938;2023-05-07T04:06:03;13.48;;;11.88;;
15451;SDS011;7827;53.594;9.938;2023-05-07T04:08:34;13.20;;;11.63;;
15451;SDS011;7827;53.594;9.938;2023-05-07T04:11:03;14.52;;;12.05;;
15451;SDS011;7827;53.594;9.938;2023-05-07T04:13:34;14.50;;;12.27;;
15451;SDS011;7827;53.594;9.938;2023-05-07T04:16:06;12.97;;;11.57;;
15451;SDS011;7827;53.594;9.938;2023-05-07T04:18:37;13.37;;;11.57;;
15451;SDS011;7827;53.594;9.938;2023-05-07T04:21:05;17.23;;;11.50;;
15451;SDS011;7827;53.594;9.938;2023-05-07T04:23:40;15.43;;;12.07;;
15451;SDS011;7827;53.594;9.938;2023-05-07T04:26:11;14.20;;;11.32;;
15451;SDS011;7827;53.594;9.938;2023-05-07T04:28:42;14.60;;;11.65;;
15451;SDS011;7827;53.594;9.938;2023-05-07T04:31:12;12.77;;;11.40;;
15451;SDS011;7827;53.594;9.938;2023-05-07T04:33:40;13.52;;;11.85;;
15451;SDS011;7827;53.594;9.938;2023-05-07T04:36:12;13.23;;;11.73;;
15451;SDS011;7827;53.594;9.938;2023-05-07T04:38:49;13.17;;;11.80;;
15451;SDS011;7827;53.594;9.938;2023-05-07T04:41:18;14.60;;;12.07;;
15451;SDS011;7827;53.594;9.938;2023-05-07T04:43:47;15.98;;;11.73;;
15451;SDS011;7827;53.594;9.938;2023-05-07T04:46:18;14.03;;;11.43;;
15451;SDS011;7827;53.594;9.938;2023-05-07T04:48:48;13.37;;;11.23;;
15451;SDS011;7827;53.594;9.938;2023-05-07T04:51:16;13.07;;;11.50;;
15451;SDS011;7827;53.594;9.938;2023-05-07T04:53:45;12.30;;;10.63;;
15451;SDS011;7827;53.594;9.938;2023-05-07T04:56:13;11.60;;;10.18;;
15451;SDS011;7827;53.594;9.938;2023-05-07T04:58:44;13.60;;;10.93;;
15451;SDS011;7827;53.594;9.938;2023-05-07T05:01:13;12.13;;;10.50;;
15451;SDS011;7827;53.594;9.938;2023-05-07T05:03:43;11.90;;;10.33;;
15451;SDS011;7827;53.594;9.938;2023-05-07T05:06:11;11.37;;;9.83;;
15451;SDS011;7827;53.594;9.938;2023-05-07T05:08:39;13.07;;;10.60;;
15451;SDS011;7827;53.594;9.938;2023-05-07T05:11:09;14.37;;;10.77;;
15451;SDS011;7827;53.594;9.938;2023-05-07T05:13:38;11.20;;;10.10;;
15451;SDS011;7827;53.594;9.938;2023-05-07T05:16:11;11.73;;;10.00;;
15451;SDS011;7827;53.594;9.938;2023-05-07T05:18:40;10.97;;;9.77;;
15451;SDS011;7827;53.594;9.938;2023-05-07T05:21:12;11.17;;;9.57;;
15451;SDS011;7827;53.594;9.938;2023-05-07T05:23:43;11.53;;;10.07;;
15451;SDS011;7827;53.594;9.938;2023-05-07T05:26:12;12.25;;;10.07;;
15451;SDS011;7827;53.594;9.938;2023-05-07T05:28:40;10.93;;;9.57;;
15451;SDS011;7827;53.594;9.938;2023-05-07T05:31:10;12.50;;;10.73;;
15451;SDS011;7827;53.594;9.938;2023-05-07T05:33:38;13.20;;;9.83;;
15451;SDS011;7827;53.594;9.938;2023-05-07T05:36:10;11.80;;;10.20;;
15451;SDS011;7827;53.594;9.938;2023-05-07T05:38:41;13.27;;;11.18;;
15451;SDS011;7827;53.594;9.938;2023-05-07T05:41:11;12.83;;;10.93;;
15451;SDS011;7827;53.594;9.938;2023-05-07T05:43:39;13.13;;;10.90;;
15451;SDS011;7827;53.594;9.938;2023-05-07T05:46:08;15.07;;;11.05;;
15451;SDS011;7827;53.594;9.938;2023-05-07T05:48:38;12.77;;;11.37;;
15451;SDS011;7827;53.594;9.938;2023-05-07T05:51:07;13.63;;;11.45;;
15451;SDS011;7827;53.594;9.938;2023-05-07T05:53:37;12.05;;;10.18;;
15451;SDS011;7827;53.594;9.938;2023-05-07T05:56:05;12.75;;;10.93;;
15451;SDS011;7827;53.594;9.938;2023-05-07T05:58:35;12.70;;;10.85;;
15451;SDS011;7827;53.594;9.938;2023-05-07T06:01:06;12.07;;;10.63;;
15451;SDS011;7827;53.594;9.938;2023-05-07T06:03:36;12.33;;;10.53;;
15451;SDS011;7827;53.594;9.938;2023-05-07T06:06:10;13.32;;;10.30;;
15451;SDS011;7827;53.594;9.938;2023-05-07T06:08:40;11.95;;;10.40;;
15451;SDS011;7827;53.594;9.938;2023-05-07T06:11:12;13.05;;;10.15;;
15451;SDS011;7827;53.594;9.938;2023-05-07T06:13:43;13.23;;;10.95;;
15451;SDS011;7827;53.594;9.938;2023-05-07T06:16:11;14.55;;;10.65;;
15451;SDS011;7827;53.594;9.938;2023-05-07T06:18:42;13.55;;;11.23;;
15451;SDS011;7827;53.594;9.938;2023-05-07T06:21:13;15.10;;;11.65;;
15451;SDS011;7827;53.594;9.938;2023-05-07T06:23:43;12.23;;;10.90;;
15451;SDS011;7827;53.594;9.938;2023-05-07T06:26:12;13.47;;;10.93;;
15451;SDS011;7827;53.594;9.938;2023-05-07T06:28:43;11.98;;;10.75;;
15451;SDS011;7827;53.594;9.938;2023-05-07T06:31:13;12.73;;;10.18;;
15451;SDS011;7827;53.594;9.938;2023-05-07T06:33:49;12.70;;;10.35;;
15451;SDS011;7827;53.594;9.938;2023-05-07T06:36:18;12.32;;;11.02;;
15451;SDS011;7827;53.594;9.938;2023-05-07T06:38:48;11.20;;;9.82;;
15451;SDS011;7827;53.594;9.938;2023-05-07T06:41:16;12.15;;;10.40;;
15451;SDS011;7827;53.594;9.938;2023-05-07T06:43:45;12.18;;;10.40;;
15451;SDS011;7827;53.594;9.938;2023-05-07T06:46:34;11.30;;;9.77;;
15451;SDS011;7827;53.594;9.938;2023-05-07T06:49:04;11.90;;;10.13;;
15451;SDS011;7827;53.594;9.938;2023-05-07T06:51:33;12.23;;;10.43;;
15451;SDS011;7827;53.594;9.938;2023-05-07T06:54:04;11.83;;;10.43;;
15451;SDS011;7827;53.594;9.938;2023-05-07T06:56:35;12.82;;;9.90;;
15451;SDS011;7827;53.594;9.938;2023-05-07T06:59:04;12.23;;;10.43;;
15451;SDS011;7827;53.594;9.938;2023-05-07T07:01:38;13.80;;;10.40;;
15451;SDS011;7827;53.594;9.938;2023-05-07T07:04:08;13.38;;;9.57;;
15451;SDS011;7827;53.594;9.938;2023-05-07T07:06:38;12.20;;;9.60;;
15451;SDS011;7827;53.594;9.938;2023-05-07T07:09:11;11.70;;;9.60;;
15451;SDS011;7827;53.594;9.938;2023-05-07T07:11:40;11.48;;;9.40;;
15451;SDS011;7827;53.594;9.938;2023-05-07T07:14:08;12.32;;;9.18;;
15451;SDS011;7827;53.594;9.938;2023-05-07T07:16:44;10.60;;;9.13;;
15451;SDS011;7827;53.594;9.938;2023-05-07T07:19:14;9.98;;;8.52;;
15451;SDS011;7827;53.594;9.938;2023-05-07T07:21:43;12.93;;;9.32;;
15451;SDS011;7827;53.594;9.938;2023-05-07T07:24:14;10.48;;;9.35;;
15451;SDS011;7827;53.594;9.938;2023-05-07T07:26:50;10.82;;;8.43;;
15451;SDS011;7827;53.594;9.938;2023-05-07T07:29:20;10.85;;;8.93;;
15451;SDS011;7827;53.594;9.938;2023-05-07T07:31:48;10.48;;;8.82;;
15451;SDS011;7827;53.594;9.938;2023-05-07T07:34:18;10.25;;;9.25;;
15451;SDS011;7827;53.594;9.938;2023-05-07T07:36:47;10.07;;;8.98;;
15451;SDS011;7827;53.594;9.938;2023-05-07T07:39:19;10.20;;;8.10;;
15451;SDS011;7827;53.594;9.938;2023-05-07T07:41:50;11.30;;;8.70;;
15451;SDS011;7827;53.594;9.938;2023-05-07T07:44:20;10.27;;;7.85;;
15451;SDS011;7827;53.594;9.938;2023-05-07T07:46:53;9.18;;;7.95;;
15451;SDS011;7827;53.594;9.938;2023-05-07T07:49:23;9.40;;;8.45;;
15451;SDS011;7827;53.594;9.938;2023-05-07T07:51:52;13.20;;;8.70;;
15451;SDS011;7827;53.594;9.938;2023-05-07T07:54:22;10.82;;;7.85;;
15451;SDS011;7827;53.594;9.938;2023-05-07T07:56:50;10.60;;;8.68;;
15451;SDS011;7827;53.594;9.938;2023-05-07T07:59:19;9.70;;;8.55;;
15451;SDS011;7827;53.594;9.938;2023-05-07T08:01:49;10.32;;;7.20;;
15451;SDS011;7827;53.594;9.938;2023-05-07T08:04:22;8.60;;;7.70;;
15451;SDS011;7827;53.594;9.938;2023-05-07T08:06:53;9.95;;;8.48;;
15451;SDS011;7827;53.594;9.938;2023-05-07T08:09:23;10.13;;;8.35;;
15451;SDS011;7827;53.594;9.938;2023-05-07T08:11:53;9.05;;;7.78;;
15451;SDS011;7827;53.594;9.938;2023-05-07T08:14:21;9.20;;;8.23;;
15451;SDS011;7827;53.594;9.938;2023-05-07T08:16:50;9.02;;;7.82;;
15451;SDS011;7827;53.594;9.938;2023-05-07T08:19:19;10.50;;;8.77;;
15451;SDS011;7827;53.594;9.938;2023-05-07T08:21:48;9.32;;;7.82;;
15451;SDS011;7827;53.594;9.938;2023-05-07T08:24:17;9.05;;;7.68;;
15451;SDS011;7827;53.594;9.938;2023-05-07T08:26:47;9.25;;;8.13;;
15451;SDS011;7827;53.594;9.938;2023-05-07T08:29:16;12.20;;;8.65;;
15451;SDS011;7827;53.594;9.938;2023-05-07T08:31:45;9.05;;;8.05;;
15451;SDS011;7827;53.594;9.938;2023-05-07T08:34:14;10.45;;;7.60;;
15451;SDS011;7827;53.594;9.938;2023-05-07T08:36:45;8.20;;;7.40;;
15451;SDS011;7827;53.594;9.938;2023-05-07T08:39:17;9.00;;;8.07;;
15451;SDS011;7827;53.594;9.938;2023-05-07T08:41:49;8.63;;;7.72;;
15451;SDS011;7827;53.594;9.938;2023-05-07T08:44:25;8.68;;;7.78;;
15451;SDS011;7827;53.594;9.938;2023-05-07T08:46:56;8.73;;;7.35;;
15451;SDS011;7827;53.594;9.938;2023-05-07T08:49:29;7.80;;;7.05;;
15451;SDS011;7827;53.594;9.938;2023-05-07T08:51:58;8.80;;;7.60;;
15451;SDS011;7827;53.594;9.938;2023-05-07T08:54:28;9.90;;;8.48;;
15451;SDS011;7827;53.594;9.938;2023-05-07T08:57:01;8.70;;;7.85;;
15451;SDS011;7827;53.594;9.938;2023-05-07T08:59:32;10.93;;;8.48;;
15451;SDS011;7827;53.594;9.938;2023-05-07T09:02:00;9.60;;;8.60;;
15451;SDS011;7827;53.594;9.938;2023-05-07T09:04:29;10.35;;;8.20;;
15451;SDS011;7827;53.594;9.938;2023-05-07T09:06:58;10.23;;;9.13;;
15451;SDS011;7827;53.594;9.938;2023-05-07T09:09:35;9.95;;;8.45;;
15451;SDS011;7827;53.594;9.938;2023-05-07T09:12:05;9.52;;;8.52;;
15451;SDS011;7827;53.594;9.938;2023-05-07T09:14:35;9.02;;;8.07;;
15451;SDS011;7827;53.594;9.938;2023-05-07T09:17:03;8.68;;;7.75;;
15451;SDS011;7827;53.594;9.938;2023-05-07T09:19:32;10.63;;;7.82;;
15451;SDS011;7827;53.594;9.938;2023-05-07T09:22:04;9.18;;;7.88;;
15451;SDS011;7827;53.594;9.938;2023-05-07T09:24:47;11.68;;;8.32;;
15451;SDS011;7827;53.594;9.938;2023-05-07T09:27:20;9.70;;;8.27;;
15451;SDS011;7827;53.594;9.938;2023-05-07T09:29:48;8.65;;;7.75;;
15451;SDS011;7827;53.594;9.938;2023-05-07T09:32:17;11.18;;;7.88;;
15451;SDS011;7827;53.594;9.938;2023-05-07T09:34:46;8.13;;;6.95;;
15451;SDS011;7827;53.594;9.938;2023-05-07T09:37:17;8.85;;;7.45;;
15451;SDS011;7827;53.594;9.938;2023-05-07T09:39:46;8.60;;;7.38;;
15451;SDS011;7827;53.594;9.938;2023-05-07T09:42:24;7.85;;;7.05;;
15451;SDS011;7827;53.594;9.938;2023-05-07T09:44:56;7.57;;;6.88;;
15451;SDS011;7827;53.594;9.938;2023-05-07T09:47:32;8.55;;;7.07;;
15451;SDS011;7827;53.594;9.938;2023-05-07T09:50:05;9.40;;;8.05;;
15451;SDS011;7827;53.594;9.938;2023-05-07T09:52:38;9.55;;;7.53;;
15451;SDS011;7827;53.594;9.938;2023-05-07T09:55:09;7.68;;;6.88;;
15451;SDS011;7827;53.594;9.938;2023-05-07T09:57:41;9.18;;;6.78;;
15451;SDS011;7827;53.594;9.938;2023-05-07T10:00:11;8.00;;;7.00;;
15451;SDS011;7827;53.594;9.938;2023-05-07T10:02:48;10.18;;;7.13;;
15451;SDS011;7827;53.594;9.938;2023-05-07T10:05:31;7.75;;;6.80;;
15451;SDS011;7827;53.594;9.938;2023-05-07T10:08:01;8.18;;;6.75;;
15451;SDS011;7827;53.594;9.938;2023-05-07T10:10:34;7.30;;;6.60;;
15451;SDS011;7827;53.594;9.938;2023-05-07T10:13:07;7.45;;;6.75;;
15451;SDS011;7827;53.594;9.938;2023-05-07T10:15:42;8.13;;;6.75;;
15451;SDS011;7827;53.594;9.938;2023-05-07T10:18:11;8.00;;;7.28;;
15451;SDS011;7827;53.594;9.938;2023-05-07T10:20:45;8.02;;;7.22;;
15451;SDS011;7827;53.594;9.938;2023-05-07T10:23:16;8.25;;;7.35;;
15451;SDS011;7827;53.594;9.938;2023-05-07T10:25:54;7.95;;;7.15;;
15451;SDS011;7827;53.594;9.938;2023-05-07T10:28:31;11.55;;;7.50;;
15451;SDS011;7827;53.594;9.938;2023-05-07T10:31:10;9.65;;;7.88;;
15451;SDS011;7827;53.594;9.938;2023-05-07T10:34:00;8.88;;;7.97;;
15451;SDS011;7827;53.594;9.938;2023-05-07T10:36:37;8.90;;;7.30;;
15451;SDS011;7827;53.594;9.938;2023-05-07T10:39:06;8.30;;;7.50;;
15451;SDS011;7827;53.594;9.938;2023-05-07T10:41:36;8.75;;;7.32;;
15451;SDS011;7827;53.594;9.938;2023-05-07T10:44:06;9.75;;;7.72;;
15451;SDS011;7827;53.594;9.938;2023-05-07T10:46:36;11.48;;;6.85;;
15451;SDS011;7827;53.594;9.938;2023-05-07T10:49:13;7.63;;;6.80;;
15451;SDS011;7827;53.594;9.938;2023-05-07T10:52:11;10.60;;;6.80;;
15451;SDS011;7827;53.594;9.938;2023-05-07T10:55:19;8.00;;;6.30;;
15451;SDS011;7827;53.594;9.938;2023-05-07T10:58:25;8.35;;;7.10;;
15451;SDS011;7827;53.594;9.938;2023-05-07T11:04:34;7.03;;;6.32;;
15451;SDS011;7827;53.594;9.938;2023-05-07T11:07:23;7.03;;;6.32;;
15451;SDS011;7827;53.594;9.938;2023-05-07T11:10:02;6.95;;;6.25;;
15451;SDS011;7827;53.594;9.938;2023-05-07T11:13:09;7.20;;;6.50;;
15451;SDS011;7827;53.594;9.938;2023-05-07T11:15:46;8.02;;;6.78;;
15451;SDS011;7827;53.594;9.938;2023-05-07T11:18:46;8.80;;;6.03;;
15451;SDS011;7827;53.594;9.938;2023-05-07T11:21:34;9.07;;;6.20;;
15451;SDS011;7827;53.594;9.938;2023-05-07T11:24:37;7.20;;;6.38;;
15451;SDS011;7827;53.594;9.938;2023-05-07T11:27:07;6.70;;;6.10;;
15451;SDS011;7827;53.594;9.938;2023-05-07T11:29:36;6.30;;;5.70;;
15451;SDS011;7827;53.594;9.938;2023-05-07T11:32:09;6.55;;;5.60;;
15451;SDS011;7827;53.594;9.938;2023-05-07T11:34:47;6.93;;;5.97;;
15451;SDS011;7827;53.594;9.938;2023-05-07T11:37:21;7.68;;;6.03;;
15451;SDS011;7827;53.594;9.938;2023-05-07T11:40:03;7.20;;;6.20;;
15451;SDS011;7827;53.594;9.938;2023-05-07T11:42:33;9.02;;;6.47;;
15451;SDS011;7827;53.594;9.938;2023-05-07T11:45:04;6.75;;;6.15;;
15451;SDS011;7827;53.594;9.938;2023-05-07T11:47:35;6.95;;;5.95;;
15451;SDS011;7827;53.594;9.938;2023-05-07T11:50:07;6.30;;;5.70;;
15451;SDS011;7827;53.594;9.938;2023-05-07T11:52:37;7.07;;;6.05;;
15451;SDS011;7827;53.594;9.938;2023-05-07T11:55:06;7.03;;;6.00;;
15451;SDS011;7827;53.594;9.938;2023-05-07T11:57:36;7.53;;;6.25;;
15451;SDS011;7827;53.594;9.938;2023-05-07T12:00:04;6.93;;;6.20;;
15451;SDS011;7827;53.594;9.938;2023-05-07T12:02:40;7.25;;;5.72;;
15451;SDS011;7827;53.594;9.938;2023-05-07T12:05:10;6.35;;;5.75;;
15451;SDS011;7827;53.594;9.938;2023-05-07T12:07:40;6.68;;;5.53;;
15451;SDS011;7827;53.594;9.938;2023-05-07T12:10:08;6.03;;;5.43;;
15451;SDS011;7827;53.594;9.938;2023-05-07T12:12:39;5.80;;;5.30;;
15451;SDS011;7827;53.594;9.938;2023-05-07T12:15:09;5.93;;;5.18;;
15451;SDS011;7827;53.594;9.938;2023-05-07T12:17:38;5.57;;;4.97;;
15451;SDS011;7827;53.594;9.938;2023-05-07T12:20:08;5.15;;;4.65;;
15451;SDS011;7827;53.594;9.938;2023-05-07T12:22:38;5.40;;;4.90;;
15451;SDS011;7827;53.594;9.938;2023-05-07T12:25:08;7.10;;;5.45;;
15451;SDS011;7827;53.594;9.938;2023-05-07T12:27:37;7.18;;;4.93;;
15451;SDS011;7827;53.594;9.938;2023-05-07T12:30:08;7.97;;;5.30;;
15451;SDS011;7827;53.594;9.938;2023-05-07T12:32:38;5.90;;;4.80;;
15451;SDS011;7827;53.594;9.938;2023-05-07T12:35:07;5.72;;;5.05;;
15451;SDS011;7827;53.594;9.938;2023-05-07T12:37:37;6.75;;;4.43;;
15451;SDS011;7827;53.594;9.938;2023-05-07T12:40:07;5.97;;;4.43;;
15451;SDS011;7827;53.594;9.938;2023-05-07T12:42:39;5.75;;;4.43;;
15451;SDS011;7827;53.594;9.938;2023-05-07T12:45:09;4.95;;;4.45;;
15451;SDS011;7827;53.594;9.938;2023-05-07T12:47:38;6.15;;;4.40;;
15451;SDS011;7827;53.594;9.938;2023-05-07T12:50:10;4.93;;;4.40;;
15451;SDS011;7827;53.594;9.938;2023-05-07T12:52:41;5.15;;;4.30;;
15451;SDS011;7827;53.594;9.938;2023-05-07T12:55:12;4.40;;;4.00;;
15451;SDS011;7827;53.594;9.938;2023-05-07T12:57:43;4.80;;;4.32;;
15451;SDS011;7827;53.594;9.938;2023-05-07T13:00:17;4.57;;;4.07;;
15451;SDS011;7827;53.594;9.938;2023-05-07T13:02:45;5.72;;;5.10;;
15451;SDS011;7827;53.594;9.938;2023-05-07T13:05:14;5.18;;;4.68;;
15451;SDS011;7827;53.594;9.938;2023-05-07T13:07:53;6.20;;;4.00;;
15451;SDS011;7827;53.594;9.938;2023-05-07T13:10:22;5.82;;;4.20;;
15451;SDS011;7827;53.594;9.938;2023-05-07T13:12:51;5.00;;;4.50;;
15451;SDS011;7827;53.594;9.938;2023-05-07T13:15:19;5.90;;;4.00;;
15451;SDS011;7827;53.594;9.938;2023-05-07T13:17:50;5.13;;;4.50;;
15451;SDS011;7827;53.594;9.938;2023-05-07T13:20:18;4.65;;;4.25;;
15451;SDS011;7827;53.594;9.938;2023-05-07T13:22:46;4.50;;;4.10;;
15451;SDS011;7827;53.594;9.938;2023-05-07T13:25:16;4.93;;;4.40;;
15451;SDS011;7827;53.594;9.938;2023-05-07T13:27:44;4.72;;;3.90;;
15451;SDS011;7827;53.594;9.938;2023-05-07T13:30:22;4.22;;;3.83;;
15451;SDS011;7827;53.594;9.938;2023-05-07T13:32:50;5.43;;;4.07;;
15451;SDS011;7827;53.594;9.938;2023-05-07T13:35:22;4.35;;;3.95;;
15451;SDS011;7827;53.594;9.938;2023-05-07T13:37:51;5.40;;;3.78;;
15451;SDS011;7827;53.594;9.938;2023-05-07T13:40:22;7.75;;;4.03;;
15451;SDS011;7827;53.594;9.938;2023-05-07T13:42:51;4.75;;;3.80;;
15451;SDS011;7827;53.594;9.938;2023-05-07T13:45:19;5.75;;;4.28;;
15451;SDS011;7827;53.594;9.938;2023-05-07T13:47:47;4.20;;;3.90;;
15451;SDS011;7827;53.594;9.938;2023-05-07T13:50:16;6.47;;;5.18;;
15451;SDS011;7827;53.594;9.938;2023-05-07T13:52:45;4.65;;;4.25;;
15451;SDS011;7827;53.594;9.938;2023-05-07T13:55:17;4.40;;;3.67;;
15451;SDS011;7827;53.594;9.938;2023-05-07T13:57:47;5.65;;;3.60;;
15451;SDS011;7827;53.594;9.938;2023-05-07T14:00:21;4.38;;;3.00;;
15451;SDS011;7827;53.594;9.938;2023-05-07T14:02:49;4.82;;;3.72;;
15451;SDS011;7827;53.594;9.938;2023-05-07T14:05:18;5.30;;;3.78;;
15451;SDS011;7827;53.594;9.938;2023-05-07T14:07:47;4.22;;;3.20;;
15451;SDS011;7827;53.594;9.938;2023-05-07T14:10:18;3.78;;;3.20;;
15451;SDS011;7827;53.594;9.938;2023-05-07T14:12:48;6.65;;;4.70;;
15451;SDS011;7827;53.594;9.938;2023-05-07T14:15:16;4.05;;;3.70;;
15451;SDS011;7827;53.594;9.938;2023-05-07T14:17:45;4.00;;;3.47;;
15451;SDS011;7827;53.594;9.938;2023-05-07T14:20:13;6.22;;;3.90;;
15451;SDS011;7827;53.594;9.938;2023-05-07T14:22:42;3.45;;;3.15;;
15451;SDS011;7827;53.594;9.938;2023-05-07T14:25:10;4.55;;;3.47;;
15451;SDS011;7827;53.594;9.938;2023-05-07T14:27:40;5.22;;;4.53;;
15451;SDS011;7827;53.594;9.938;2023-05-07T14:30:09;5.85;;;4.75;;
15451;SDS011;7827;53.594;9.938;2023-05-07T14:32:39;5.97;;;4.43;;
15451;SDS011;7827;53.594;9.938;2023-05-07T14:35:07;4.60;;;2.92;;
15451;SDS011;7827;53.594;9.938;2023-05-07T14:37:36;3.25;;;2.80;;
15451;SDS011;7827;53.594;9.938;2023-05-07T14:40:05;7.53;;;4.10;;
15451;SDS011;7827;53.594;9.938;2023-05-07T14:42:36;3.55;;;3.22;;
15451;SDS011;7827;53.594;9.938;2023-05-07T14:45:05;4.47;;;3.70;;
15451;SDS011;7827;53.594;9.938;2023-05-07T14:47:37;3.47;;;3.17;;
15451;SDS011;7827;53.594;9.938;2023-05-07T14:50:05;5.13;;;3.30;;
15451;SDS011;7827;53.594;9.938;2023-05-07T14:52:34;4.72;;;3.28;;
15451;SDS011;7827;53.594;9.938;2023-05-07T14:55:02;6.03;;;4.43;;
15451;SDS011;7827;53.594;9.938;2023-05-07T14:57:31;7.43;;;3.97;;
15451;SDS011;7827;53.594;9.938;2023-05-07T15:00:01;4.65;;;4.05;;
15451;SDS011;7827;53.594;9.938;2023-05-07T15:02:31;5.63;;;3.17;;
15451;SDS011;7827;53.594;9.938;2023-05-07T15:05:01;3.10;;;2.80;;
15451;SDS011;7827;53.594;9.938;2023-05-07T15:07:29;3.17;;;2.88;;
15451;SDS011;7827;53.594;9.938;2023-05-07T15:09:58;4.30;;;2.95;;
15451;SDS011;7827;53.594;9.938;2023-05-07T15:12:27;4.50;;;2.60;;
15451;SDS011;7827;53.594;9.938;2023-05-07T15:14:55;4.93;;;3.20;;